Home > Products > Valid Products > TAF

000
FTUS46 KOTX 010533
TAFGEG
TAF
KGEG 010533Z 0106/0206 VRB04KT P6SM FEW150 BKN200
     FM011200 08004KT P6SM FEW120 BKN150
     FM012000 02005KT P6SM SCT100 BKN150
     FM020100 VRB04KT P6SM SCT100 OVC150=



000
FTUS46 KOTX 010533
TAFPUW
TAF
KPUW 010533Z 0106/0206 00000KT P6SM FEW150 BKN200
     FM011600 08004KT P6SM SCT120 OVC150
     FM012200 28005KT P6SM VCTS SCT100CB OVC120
     FM020200 VRB02KT P6SM FEW120 BKN150=



000
FTUS46 KOTX 010533
TAFMWH
TAF
KMWH 010533Z 0106/0206 34006KT P6SM BKN200
     FM011200 01005KT P6SM FEW120 BKN150
     FM012000 22007KT P6SM SCT100 BKN150
     FM020000 24008KT P6SM SCT100 OVC150=



000
FTUS46 KOTX 010533
TAFEAT
TAF
KEAT 010533Z 0106/0206 32009KT P6SM SCT200
     FM011200 30009KT P6SM BKN150
     FM012100 14006KT P6SM VCTS SCT100CB OVC150
     FM020400 31010KT P6SM SCT120 BKN150=



000
FTUS46 KOTX 010533
TAFSFF
TAF
KSFF 010533Z 0106/0206 VRB02KT P6SM FEW150 BKN200
     FM011200 00000KT P6SM FEW120 BKN150
     FM012100 VRB04KT P6SM SCT100 BKN150
     FM020100 VRB02KT P6SM SCT100 OVC150=



000
FTUS46 KOTX 010533
TAFCOE
TAF
KCOE 010533Z 0106/0206 VRB04KT P6SM BKN200
     FM011500 04007KT P6SM SCT120 BKN150
     FM012100 01004KT P6SM SCT100 BKN150
     FM020200 06004KT P6SM SCT100 OVC150
      AMD LTD TO CLD VIS AND WIND=



000
FTUS46 KOTX 010533
TAFLWS
TAF
KLWS 010533Z 0106/0206 VRB04KT P6SM FEW150 BKN200
     FM011200 VRB02KT P6SM SCT120 OVC150
     FM012100 01006KT P6SM VCTS SCT100CB OVC120
     FM020300 VRB05KT P6SM FEW120 BKN150=



000
FTUS46 KOTX 010533
TAFLWS
TAF
KLWS 010533Z 0106/0206 VRB04KT P6SM FEW150 BKN200
     FM011200 VRB02KT P6SM SCT120 OVC150
     FM012100 01006KT P6SM VCTS SCT100CB OVC120
     FM020300 VRB05KT P6SM FEW120 BKN150=



000
FTUS46 KOTX 010533
TAFSFF
TAF
KSFF 010533Z 0106/0206 VRB02KT P6SM FEW150 BKN200
     FM011200 00000KT P6SM FEW120 BKN150
     FM012100 VRB04KT P6SM SCT100 BKN150
     FM020100 VRB02KT P6SM SCT100 OVC150=



000
FTUS46 KOTX 010533
TAFPUW
TAF
KPUW 010533Z 0106/0206 00000KT P6SM FEW150 BKN200
     FM011600 08004KT P6SM SCT120 OVC150
     FM012200 28005KT P6SM VCTS SCT100CB OVC120
     FM020200 VRB02KT P6SM FEW120 BKN150=



000
FTUS46 KOTX 010533
TAFMWH
TAF
KMWH 010533Z 0106/0206 34006KT P6SM BKN200
     FM011200 01005KT P6SM FEW120 BKN150
     FM012000 22007KT P6SM SCT100 BKN150
     FM020000 24008KT P6SM SCT100 OVC150=



000
FTUS46 KOTX 010533
TAFGEG
TAF
KGEG 010533Z 0106/0206 VRB04KT P6SM FEW150 BKN200
     FM011200 08004KT P6SM FEW120 BKN150
     FM012000 02005KT P6SM SCT100 BKN150
     FM020100 VRB04KT P6SM SCT100 OVC150=



000
FTUS46 KOTX 010533
TAFCOE
TAF
KCOE 010533Z 0106/0206 VRB04KT P6SM BKN200
     FM011500 04007KT P6SM SCT120 BKN150
     FM012100 01004KT P6SM SCT100 BKN150
     FM020200 06004KT P6SM SCT100 OVC150
      AMD LTD TO CLD VIS AND WIND=



000
FTUS46 KOTX 010533
TAFEAT
TAF
KEAT 010533Z 0106/0206 32009KT P6SM SCT200
     FM011200 30009KT P6SM BKN150
     FM012100 14006KT P6SM VCTS SCT100CB OVC150
     FM020400 31010KT P6SM SCT120 BKN150=



000
FTUS46 KOTX 010053 AAA
TAFGEG
TAF AMD
KGEG 010053Z 0101/0124 27012G20KT P6SM BKN200
     FM010500 VRB04KT P6SM FEW150 SCT200
     FM011200 08004KT P6SM FEW120 BKN150
     FM012000 02005KT P6SM SCT100 BKN150=



000
FTUS46 KOTX 010053 AAA
TAFGEG
TAF AMD
KGEG 010053Z 0101/0124 27012G20KT P6SM BKN200
     FM010500 VRB04KT P6SM FEW150 SCT200
     FM011200 08004KT P6SM FEW120 BKN150
     FM012000 02005KT P6SM SCT100 BKN150=



000
FTUS46 KOTX 312339
TAFEAT
TAF
KEAT 312339Z 0100/0124 12006KT P6SM FEW200
     FM010100 32011KT P6SM FEW200
     FM010900 31008KT P6SM SCT200
     FM011200 30009KT P6SM BKN150
     FM012000 25006KT P6SM VCTS FEW100CB BKN150=



000
FTUS46 KOTX 312339
TAFCOE
TAF
KCOE 312339Z 0100/0124 30007KT P6SM BKN200
     FM010300 VRB04KT P6SM BKN200
     FM010900 09007KT P6SM FEW150 SCT200
     FM011500 04005KT P6SM SCT120 BKN150
      AMD LTD TO CLD VIS AND WIND=



000
FTUS46 KOTX 312339
TAFLWS
TAF
KLWS 312339Z 0100/0124 33008KT P6SM BKN200
     FM010600 VRB03KT P6SM FEW120 BKN150
     FM011200 VRB02KT P6SM SCT100 BKN150
     FM012100 01006KT P6SM VCTS SCT100CB BKN120=



000
FTUS46 KOTX 312339
TAFGEG
TAF
KGEG 312339Z 0100/0124 27007KT P6SM BKN200
     FM010500 VRB04KT P6SM FEW150 SCT200
     FM011200 08004KT P6SM FEW120 BKN150
     FM012000 02005KT P6SM SCT100 BKN150=



000
FTUS46 KOTX 312339
TAFSFF
TAF
KSFF 312339Z 0100/0124 28006KT P6SM BKN200
     FM010600 VRB02KT P6SM FEW150 SCT200
     FM011200 00000KT P6SM FEW120 BKN150
     FM012100 VRB04KT P6SM SCT100 BKN150=



000
FTUS46 KOTX 312339
TAFMWH
TAF
KMWH 312339Z 0100/0124 21007KT P6SM SCT200
     FM010300 26006KT P6SM FEW200
     FM011000 35005KT P6SM SCT120 BKN150
     FM012000 22007KT P6SM FEW100 SCT150=



000
FTUS46 KOTX 312339
TAFPUW
TAF
KPUW 312339Z 0100/0124 29006KT P6SM BKN200
     FM010400 00000KT P6SM SCT150 BKN200
     FM010900 00000KT P6SM SCT120 BKN150
     FM011600 08004KT P6SM SCT100 BKN120
     FM012200 28005KT P6SM VCTS SCT100CB BKN120=



000
FTUS46 KOTX 312339
TAFMWH
TAF
KMWH 312339Z 0100/0124 21007KT P6SM SCT200
     FM010300 26006KT P6SM FEW200
     FM011000 35005KT P6SM SCT120 BKN150
     FM012000 22007KT P6SM FEW100 SCT150=



000
FTUS46 KOTX 312339
TAFGEG
TAF
KGEG 312339Z 0100/0124 27007KT P6SM BKN200
     FM010500 VRB04KT P6SM FEW150 SCT200
     FM011200 08004KT P6SM FEW120 BKN150
     FM012000 02005KT P6SM SCT100 BKN150=



000
FTUS46 KOTX 312339
TAFPUW
TAF
KPUW 312339Z 0100/0124 29006KT P6SM BKN200
     FM010400 00000KT P6SM SCT150 BKN200
     FM010900 00000KT P6SM SCT120 BKN150
     FM011600 08004KT P6SM SCT100 BKN120
     FM012200 28005KT P6SM VCTS SCT100CB BKN120=



000
FTUS46 KOTX 312339
TAFCOE
TAF
KCOE 312339Z 0100/0124 30007KT P6SM BKN200
     FM010300 VRB04KT P6SM BKN200
     FM010900 09007KT P6SM FEW150 SCT200
     FM011500 04005KT P6SM SCT120 BKN150
      AMD LTD TO CLD VIS AND WIND=



000
FTUS46 KOTX 312339
TAFSFF
TAF
KSFF 312339Z 0100/0124 28006KT P6SM BKN200
     FM010600 VRB02KT P6SM FEW150 SCT200
     FM011200 00000KT P6SM FEW120 BKN150
     FM012100 VRB04KT P6SM SCT100 BKN150=



000
FTUS46 KOTX 312339
TAFEAT
TAF
KEAT 312339Z 0100/0124 12006KT P6SM FEW200
     FM010100 32011KT P6SM FEW200
     FM010900 31008KT P6SM SCT200
     FM011200 30009KT P6SM BKN150
     FM012000 25006KT P6SM VCTS FEW100CB BKN150=



000
FTUS46 KOTX 312339
TAFLWS
TAF
KLWS 312339Z 0100/0124 33008KT P6SM BKN200
     FM010600 VRB03KT P6SM FEW120 BKN150
     FM011200 VRB02KT P6SM SCT100 BKN150
     FM012100 01006KT P6SM VCTS SCT100CB BKN120=



000
FTUS46 KOTX 311720
TAFSFF
TAF
KSFF 311720Z 3118/0118 VRB03KT P6SM FEW200
     FM312100 28006KT P6SM FEW200
     FM010200 VRB02KT P6SM FEW150 SCT200=



000
FTUS46 KOTX 311720
TAFPUW
TAF
KPUW 311720Z 3118/0118 VRB04KT P6SM FEW200
     FM312300 29006KT P6SM FEW200
     FM010300 VRB02KT P6SM SCT150 BKN200=



000
FTUS46 KOTX 311720
TAFGEG
TAF
KGEG 311720Z 3118/0118 19005KT P6SM FEW200
     FM312100 27007KT P6SM FEW200
     FM010500 VRB04KT P6SM FEW150 SCT200=



000
FTUS46 KOTX 311720
TAFMWH
TAF
KMWH 311720Z 3118/0118 VRB04KT P6SM FEW200
     FM312200 21007KT P6SM SCT150
     FM010300 26006KT P6SM SCT120 BKN200
     FM011000 36005KT P6SM SCT120 BKN200=



000
FTUS46 KOTX 311720
TAFGEG
TAF
KGEG 311720Z 3118/0118 19005KT P6SM FEW200
     FM312100 27007KT P6SM FEW200
     FM010500 VRB04KT P6SM FEW150 SCT200=



000
FTUS46 KOTX 311720
TAFCOE
TAF
KCOE 311720Z 3118/0118 10004KT P6SM FEW200
     FM312100 28007KT P6SM FEW200
     FM010300 VRB04KT P6SM FEW150 SCT200
     FM011200 09007KT P6SM FEW150 SCT200
      AMD LTD TO CLD VIS AND WIND=



000
FTUS46 KOTX 311720
TAFLWS
TAF
KLWS 311720Z 3118/0118 VRB04KT P6SM FEW200
     FM312100 33008KT P6SM FEW200
     FM010600 VRB04KT P6SM FEW120 SCT150=



000
FTUS46 KOTX 311720
TAFLWS
TAF
KLWS 311720Z 3118/0118 VRB04KT P6SM FEW200
     FM312100 33008KT P6SM FEW200
     FM010600 VRB04KT P6SM FEW120 SCT150=



000
FTUS46 KOTX 311720
TAFMWH
TAF
KMWH 311720Z 3118/0118 VRB04KT P6SM FEW200
     FM312200 21007KT P6SM SCT150
     FM010300 26006KT P6SM SCT120 BKN200
     FM011000 36005KT P6SM SCT120 BKN200=



000
FTUS46 KOTX 311720
TAFEAT
TAF
KEAT 311720Z 3118/0118 26009KT P6SM FEW200
     FM312100 12006KT P6SM FEW150
     FM010100 32010KT P6SM SCT120 BKN200=



000
FTUS46 KOTX 311720
TAFCOE
TAF
KCOE 311720Z 3118/0118 10004KT P6SM FEW200
     FM312100 28007KT P6SM FEW200
     FM010300 VRB04KT P6SM FEW150 SCT200
     FM011200 09007KT P6SM FEW150 SCT200
      AMD LTD TO CLD VIS AND WIND=



000
FTUS46 KOTX 311720
TAFPUW
TAF
KPUW 311720Z 3118/0118 VRB04KT P6SM FEW200
     FM312300 29006KT P6SM FEW200
     FM010300 VRB02KT P6SM SCT150 BKN200=



000
FTUS46 KOTX 311720
TAFSFF
TAF
KSFF 311720Z 3118/0118 VRB03KT P6SM FEW200
     FM312100 28006KT P6SM FEW200
     FM010200 VRB02KT P6SM FEW150 SCT200=



000
FTUS46 KOTX 311120
TAFCOE
TAF
KCOE 311120Z 3112/0112 12005KT P6SM SCT200
     FM311900 26007KT P6SM FEW200
     FM010300 VRB04KT P6SM FEW150 SCT200
      AMD LTD TO CLD VIS AND WIND=



000
FTUS46 KOTX 311120
TAFSFF
TAF
KSFF 311120Z 3112/0112 VRB03KT P6SM FEW200
     FM312000 23006KT P6SM FEW200
     FM010200 VRB02KT P6SM FEW150 SCT200=



000
FTUS46 KOTX 311120
TAFMWH
TAF
KMWH 311120Z 3112/0112 34004KT P6SM FEW200
     FM311900 23007KT P6SM FEW200
     FM312200 21007KT P6SM SCT150
     FM010300 26006KT P6SM SCT120 BKN200=



000
FTUS46 KOTX 311120
TAFPUW
TAF
KPUW 311120Z 3112/0112 VRB02KT P6SM SCT200
     FM311800 27006KT P6SM FEW150 SCT200
     FM010300 VRB02KT P6SM SCT150 BKN200=



000
FTUS46 KOTX 311120
TAFSFF
TAF
KSFF 311120Z 3112/0112 VRB03KT P6SM FEW200
     FM312000 23006KT P6SM FEW200
     FM010200 VRB02KT P6SM FEW150 SCT200=



000
FTUS46 KOTX 311120
TAFEAT
TAF
KEAT 311120Z 3112/0112 31012KT P6SM SKC
     FM311400 30009KT P6SM SCT200
     FM312100 12006KT P6SM FEW150
     FM010100 32010KT P6SM SCT120 BKN200=



000
FTUS46 KOTX 311120
TAFCOE
TAF
KCOE 311120Z 3112/0112 12005KT P6SM SCT200
     FM311900 26007KT P6SM FEW200
     FM010300 VRB04KT P6SM FEW150 SCT200
      AMD LTD TO CLD VIS AND WIND=



000
FTUS46 KOTX 311120
TAFGEG
TAF
KGEG 311120Z 3112/0112 15005KT P6SM FEW200
     FM311900 25007KT P6SM FEW200
     FM010200 VRB04KT P6SM FEW150 SCT200=



000
FTUS46 KOTX 311120
TAFGEG
TAF
KGEG 311120Z 3112/0112 15005KT P6SM FEW200
     FM311900 25007KT P6SM FEW200
     FM010200 VRB04KT P6SM FEW150 SCT200=



000
FTUS46 KOTX 311120
TAFLWS
TAF
KLWS 311120Z 3112/0112 VRB03KT P6SM SCT200
     FM312000 34006KT P6SM FEW200
     FM010300 VRB04KT P6SM FEW120 SCT150=



000
FTUS46 KOTX 310520
TAFLWS
TAF
KLWS 310520Z 3106/0106 VRB03KT P6SM SCT200
     FM312000 34005KT P6SM FEW200
     FM010300 VRB04KT P6SM SCT150=



000
FTUS46 KOTX 310520
TAFCOE
TAF
KCOE 310520Z 3106/0106 12005KT P6SM SCT200
     FM311900 26007KT P6SM FEW200
     FM010300 VRB04KT P6SM FEW200
      AMD LTD TO CLD VIS AND WIND=



000
FTUS46 KOTX 310520
TAFPUW
TAF
KPUW 310520Z 3106/0106 VRB02KT P6SM SCT200
     FM311800 27006KT P6SM FEW200
     FM010300 VRB02KT P6SM SCT150=



000
FTUS46 KOTX 310520
TAFGEG
TAF
KGEG 310520Z 3106/0106 18005KT P6SM FEW200
     FM311900 25007KT P6SM FEW200
     FM010200 VRB04KT P6SM FEW200=



000
FTUS46 KOTX 310520
TAFMWH
TAF
KMWH 310520Z 3106/0106 34004KT P6SM FEW200
     FM311900 23007KT P6SM FEW200
     FM312200 21007KT P6SM SCT150
     FM010300 26006KT P6SM SCT120=



000
FTUS46 KOTX 310520
TAFSFF
TAF
KSFF 310520Z 3106/0106 VRB03KT P6SM FEW200
     FM312000 23006KT P6SM FEW200
     FM010200 VRB02KT P6SM FEW200=



000
FTUS46 KOTX 310520
TAFEAT
TAF
KEAT 310520Z 3106/0106 31012KT P6SM SKC
     FM311400 30009KT P6SM SKC
     FM312100 12006KT P6SM FEW150
     FM010100 32010KT P6SM SCT120=



000
FTUS46 KOTX 310520
TAFCOE
TAF
KCOE 310520Z 3106/0106 12005KT P6SM SCT200
     FM311900 26007KT P6SM FEW200
     FM010300 VRB04KT P6SM FEW200
      AMD LTD TO CLD VIS AND WIND=



000
FTUS46 KOTX 310520
TAFEAT
TAF
KEAT 310520Z 3106/0106 31012KT P6SM SKC
     FM311400 30009KT P6SM SKC
     FM312100 12006KT P6SM FEW150
     FM010100 32010KT P6SM SCT120=



000
FTUS46 KOTX 310520
TAFLWS
TAF
KLWS 310520Z 3106/0106 VRB03KT P6SM SCT200
     FM312000 34005KT P6SM FEW200
     FM010300 VRB04KT P6SM SCT150=



000
FTUS46 KOTX 310520
TAFSFF
TAF
KSFF 310520Z 3106/0106 VRB03KT P6SM FEW200
     FM312000 23006KT P6SM FEW200
     FM010200 VRB02KT P6SM FEW200=



000
FTUS46 KOTX 310520
TAFGEG
TAF
KGEG 310520Z 3106/0106 18005KT P6SM FEW200
     FM311900 25007KT P6SM FEW200
     FM010200 VRB04KT P6SM FEW200=



000
FTUS46 KOTX 310520
TAFMWH
TAF
KMWH 310520Z 3106/0106 34004KT P6SM FEW200
     FM311900 23007KT P6SM FEW200
     FM312200 21007KT P6SM SCT150
     FM010300 26006KT P6SM SCT120=



000
FTUS46 KOTX 310520
TAFPUW
TAF
KPUW 310520Z 3106/0106 VRB02KT P6SM SCT200
     FM311800 27006KT P6SM FEW200
     FM010300 VRB02KT P6SM SCT150=



000
FTUS46 KOTX 310203 AAA
TAFEAT
TAF AMD
KEAT 310203Z 3102/3124 31015KT P6SM SKC
     FM311400 30009KT P6SM SKC
     FM312100 12006KT P6SM SCT150=



000
FTUS46 KOTX 310203 AAA
TAFEAT
TAF AMD
KEAT 310203Z 3102/3124 31015KT P6SM SKC
     FM311400 30009KT P6SM SKC
     FM312100 12006KT P6SM SCT150=



000
FTUS46 KOTX 302331
TAFSFF
TAF
KSFF 302331Z 3100/3124 24005KT P6SM FEW100 SCT150
     FM310300 VRB03KT P6SM SKC
     FM312000 23006KT P6SM FEW150=



000
FTUS46 KOTX 302331
TAFEAT
TAF
KEAT 302331Z 3100/3124 11005KT P6SM SKC
     FM310100 31012KT P6SM SKC
     FM311400 30009KT P6SM SKC
     FM312100 12006KT P6SM SCT150=



000
FTUS46 KOTX 302331
TAFEAT
TAF
KEAT 302331Z 3100/3124 11005KT P6SM SKC
     FM310100 31012KT P6SM SKC
     FM311400 30009KT P6SM SKC
     FM312100 12006KT P6SM SCT150=



000
FTUS46 KOTX 302331
TAFSFF
TAF
KSFF 302331Z 3100/3124 24005KT P6SM FEW100 SCT150
     FM310300 VRB03KT P6SM SKC
     FM312000 23006KT P6SM FEW150=



000
FTUS46 KOTX 302331
TAFMWH
TAF
KMWH 302331Z 3100/3124 20008KT P6SM FEW120 SCT240
     FM310600 34004KT P6SM SKC
     FM311900 22007KT P6SM SCT150=



000
FTUS46 KOTX 302331
TAFMWH
TAF
KMWH 302331Z 3100/3124 20008KT P6SM FEW120 SCT240
     FM310600 34004KT P6SM SKC
     FM311900 22007KT P6SM SCT150=



000
FTUS46 KOTX 302331
TAFCOE
TAF
KCOE 302331Z 3100/3124 24006KT P6SM FEW100 SCT150
     FM310400 12004KT P6SM SKC
     FM311900 26006KT P6SM SCT150
      AMD LTD TO CLD VIS AND WIND=



000
FTUS46 KOTX 302331
TAFLWS
TAF
KLWS 302331Z 3100/3124 35007KT P6SM FEW150
     FM310500 VRB03KT P6SM SKC
     FM312100 34005KT P6SM SCT150=



000
FTUS46 KOTX 302331
TAFLWS
TAF
KLWS 302331Z 3100/3124 35007KT P6SM FEW150
     FM310500 VRB03KT P6SM SKC
     FM312100 34005KT P6SM SCT150=



000
FTUS46 KOTX 302331
TAFPUW
TAF
KPUW 302331Z 3100/3124 25008KT P6SM FEW150
     FM310400 VRB02KT P6SM SKC
     FM311800 27005KT P6SM SCT150=



000
FTUS46 KOTX 302331
TAFGEG
TAF
KGEG 302331Z 3100/3124 25007KT P6SM FEW090 SCT150
     FM310200 23006KT P6SM SKC
     FM310600 18005KT P6SM SKC
     FM311900 25007KT P6SM FEW150=



000
FTUS46 KOTX 302331
TAFGEG
TAF
KGEG 302331Z 3100/3124 25007KT P6SM FEW090 SCT150
     FM310200 23006KT P6SM SKC
     FM310600 18005KT P6SM SKC
     FM311900 25007KT P6SM FEW150=



000
FTUS46 KOTX 302331
TAFCOE
TAF
KCOE 302331Z 3100/3124 24006KT P6SM FEW100 SCT150
     FM310400 12004KT P6SM SKC
     FM311900 26006KT P6SM SCT150
      AMD LTD TO CLD VIS AND WIND=



000
FTUS46 KOTX 302331
TAFPUW
TAF
KPUW 302331Z 3100/3124 25008KT P6SM FEW150
     FM310400 VRB02KT P6SM SKC
     FM311800 27005KT P6SM SCT150=



000
FTUS46 KOTX 302200 AAA
TAFGEG
TAF AMD
KGEG 302203Z 3022/3118 23011KT P6SM FEW120 SCT150
     FM310100 22006KT P6SM SKC
     FM310600 18005KT P6SM SKC=



000
FTUS46 KOTX 302200 AAA
TAFGEG
TAF AMD
KGEG 302203Z 3022/3118 23011KT P6SM FEW120 SCT150
     FM310100 22006KT P6SM SKC
     FM310600 18005KT P6SM SKC=



000
FTUS46 KOTX 301700
TAFLWS
TAF
KLWS 301720Z 3018/3118 VRB05KT P6SM SCT120 BKN150
     FM302200 34007KT P6SM FEW150
     FM310600 VRB04KT P6SM SCT150=



000
FTUS46 KOTX 301700
TAFSFF
TAF
KSFF 301720Z 3018/3118 VRB05KT P6SM FEW120 SCT150
     FM302200 23005KT P6SM SKC
     FM310300 VRB03KT P6SM SKC=



000
FTUS46 KOTX 301700
TAFPUW
TAF
KPUW 301720Z 3018/3118 VRB04KT P6SM SCT120 BKN150
     FM302200 25006KT P6SM FEW150
     FM310400 VRB03KT P6SM SCT150=



000
FTUS46 KOTX 301700
TAFMWH
TAF
KMWH 301720Z 3018/3118 VRB04KT P6SM SKC
     FM302100 22009KT P6SM SKC
     FM310600 VRB04KT P6SM SKC=



000
FTUS46 KOTX 301700
TAFCOE
TAF
KCOE 301720Z 3018/3118 21006KT P6SM FEW120 SCT150
     FM310400 12004KT P6SM SKC
     FM311500 VRB04KT P6SM SCT150
      AMD LTD TO CLD VIS AND WIND=



000
FTUS46 KOTX 301700
TAFSFF
TAF
KSFF 301720Z 3018/3118 VRB05KT P6SM FEW120 SCT150
     FM302200 23005KT P6SM SKC
     FM310300 VRB03KT P6SM SKC=



000
FTUS46 KOTX 301700
TAFGEG
TAF
KGEG 301720Z 3018/3118 VRB05KT P6SM FEW120 SCT150
     FM302200 22006KT P6SM SKC
     FM310600 18005KT P6SM SKC=



000
FTUS46 KOTX 301700
TAFEAT
TAF
KEAT 301720Z 3018/3118 31008KT P6SM SKC
     FM310000 30012KT P6SM SKC=



000
FTUS46 KOTX 301700
TAFLWS
TAF
KLWS 301720Z 3018/3118 VRB05KT P6SM SCT120 BKN150
     FM302200 34007KT P6SM FEW150
     FM310600 VRB04KT P6SM SCT150=



000
FTUS46 KOTX 301700
TAFEAT
TAF
KEAT 301720Z 3018/3118 31008KT P6SM SKC
     FM310000 30012KT P6SM SKC=



000
FTUS46 KOTX 301700
TAFCOE
TAF
KCOE 301720Z 3018/3118 21006KT P6SM FEW120 SCT150
     FM310400 12004KT P6SM SKC
     FM311500 VRB04KT P6SM SCT150
      AMD LTD TO CLD VIS AND WIND=



000
FTUS46 KOTX 301700
TAFPUW
TAF
KPUW 301720Z 3018/3118 VRB04KT P6SM SCT120 BKN150
     FM302200 25006KT P6SM FEW150
     FM310400 VRB03KT P6SM SCT150=



000
FTUS46 KOTX 301700
TAFMWH
TAF
KMWH 301720Z 3018/3118 VRB04KT P6SM SKC
     FM302100 22009KT P6SM SKC
     FM310600 VRB04KT P6SM SKC=



000
FTUS46 KOTX 301700
TAFGEG
TAF
KGEG 301720Z 3018/3118 VRB05KT P6SM FEW120 SCT150
     FM302200 22006KT P6SM SKC
     FM310600 18005KT P6SM SKC=



000
FTUS46 KOTX 301120
TAFPUW
TAF
KPUW 301120Z 3012/3112 VRB04KT P6SM FEW120 SCT200
     FM301700 24007KT P6SM SCT120 BKN200
     FM310400 VRB02KT P6SM SCT120 BKN200=



000
FTUS46 KOTX 301120
TAFMWH
TAF
KMWH 301120Z 3012/3112 13004KT P6SM SCT120 BKN150
     FM301900 22009KT P6SM SCT150
     FM310600 VRB04KT P6SM FEW150=



000
FTUS46 KOTX 301120
TAFGEG
TAF
KGEG 301120Z 3012/3112 VRB05KT P6SM SCT150 SCT200
     FM301600 24008KT P6SM SCT120
     FM310600 18005KT P6SM SCT120 BKN200=



000
FTUS46 KOTX 301120
TAFEAT
TAF
KEAT 301120Z 3012/3112 31012KT P6SM FEW120 SCT200
     FM301800 VRB04KT P6SM BKN200
     FM310000 30015KT P6SM SCT150=



000
FTUS46 KOTX 301120
TAFLWS
TAF
KLWS 301120Z 3012/3112 VRB03KT P6SM SCT120 SCT200
     FM301900 34007KT P6SM SCT120 BKN150
     FM310400 VRB04KT P6SM FEW120 SCT150=



000
FTUS46 KOTX 301120
TAFEAT
TAF
KEAT 301120Z 3012/3112 31012KT P6SM FEW120 SCT200
     FM301800 VRB04KT P6SM BKN200
     FM310000 30015KT P6SM SCT150=



000
FTUS46 KOTX 301120
TAFSFF
TAF
KSFF 301120Z 3012/3112 VRB04KT P6SM SCT150 SCT200
     FM301700 23005KT P6SM SCT120
     FM310300 03003KT P6SM SCT120 BKN200=



000
FTUS46 KOTX 301120
TAFSFF
TAF
KSFF 301120Z 3012/3112 VRB04KT P6SM SCT150 SCT200
     FM301700 23005KT P6SM SCT120
     FM310300 03003KT P6SM SCT120 BKN200=



000
FTUS46 KOTX 301120
TAFLWS
TAF
KLWS 301120Z 3012/3112 VRB03KT P6SM SCT120 SCT200
     FM301900 34007KT P6SM SCT120 BKN150
     FM310400 VRB04KT P6SM FEW120 SCT150=



000
FTUS46 KOTX 301120
TAFPUW
TAF
KPUW 301120Z 3012/3112 VRB04KT P6SM FEW120 SCT200
     FM301700 24007KT P6SM SCT120 BKN200
     FM310400 VRB02KT P6SM SCT120 BKN200=



000
FTUS46 KOTX 301120
TAFCOE
TAF
KCOE 301120Z 3012/3112 12006KT P6SM FEW150 FEW200
     FM301900 21006KT P6SM SCT120
     FM310400 12004KT P6SM SCT120 BKN200
      AMD LTD TO CLD VIS AND WIND=



000
FTUS46 KOTX 301120
TAFCOE
TAF
KCOE 301120Z 3012/3112 12006KT P6SM FEW150 FEW200
     FM301900 21006KT P6SM SCT120
     FM310400 12004KT P6SM SCT120 BKN200
      AMD LTD TO CLD VIS AND WIND=



000
FTUS46 KOTX 301120
TAFMWH
TAF
KMWH 301120Z 3012/3112 13004KT P6SM SCT120 BKN150
     FM301900 22009KT P6SM SCT150
     FM310600 VRB04KT P6SM FEW150=



000
FTUS46 KOTX 301120
TAFGEG
TAF
KGEG 301120Z 3012/3112 VRB05KT P6SM SCT150 SCT200
     FM301600 24008KT P6SM SCT120
     FM310600 18005KT P6SM SCT120 BKN200=



000
FTUS46 KOTX 300520
TAFGEG
TAF
KGEG 300520Z 3006/3106 VRB05KT P6SM SCT150 SCT200
     FM301600 24005KT P6SM SCT120=



000
FTUS46 KOTX 300520
TAFSFF
TAF
KSFF 300520Z 3006/3106 VRB03KT P6SM SCT150 SCT200
     FM301600 23004KT P6SM SCT120=



000
FTUS46 KOTX 300520
TAFCOE
TAF
KCOE 300520Z 3006/3106 VRB04KT P6SM FEW150 FEW200
     FM301900 21006KT P6SM SCT120
      AMD LTD TO CLD VIS AND WIND=



000
FTUS46 KOTX 300520
TAFEAT
TAF
KEAT 300520Z 3006/3106 31012KT P6SM FEW120 FEW200
     FM301100 28006KT P6SM SCT120 SCT200
     FM301800 VRB04KT P6SM BKN200=



000
FTUS46 KOTX 300520
TAFMWH
TAF
KMWH 300520Z 3006/3106 VRB05KT P6SM FEW120 FEW200
     FM301200 VRB04KT P6SM SCT120 BKN200=



000
FTUS46 KOTX 300520
TAFPUW
TAF
KPUW 300520Z 3006/3106 VRB04KT P6SM FEW120 FEW200
     FM301400 VRB04KT P6SM SCT120 BKN200=



000
FTUS46 KOTX 300520
TAFLWS
TAF
KLWS 300520Z 3006/3106 VRB03KT P6SM SCT120 SCT200=



000
FTUS46 KOTX 300520
TAFSFF
TAF
KSFF 300520Z 3006/3106 VRB03KT P6SM SCT150 SCT200
     FM301600 23004KT P6SM SCT120=



000
FTUS46 KOTX 300520
TAFLWS
TAF
KLWS 300520Z 3006/3106 VRB03KT P6SM SCT120 SCT200=



000
FTUS46 KOTX 300520
TAFGEG
TAF
KGEG 300520Z 3006/3106 VRB05KT P6SM SCT150 SCT200
     FM301600 24005KT P6SM SCT120=



000
FTUS46 KOTX 300520
TAFPUW
TAF
KPUW 300520Z 3006/3106 VRB04KT P6SM FEW120 FEW200
     FM301400 VRB04KT P6SM SCT120 BKN200=



000
FTUS46 KOTX 300520
TAFCOE
TAF
KCOE 300520Z 3006/3106 VRB04KT P6SM FEW150 FEW200
     FM301900 21006KT P6SM SCT120
      AMD LTD TO CLD VIS AND WIND=



000
FTUS46 KOTX 300520
TAFMWH
TAF
KMWH 300520Z 3006/3106 VRB05KT P6SM FEW120 FEW200
     FM301200 VRB04KT P6SM SCT120 BKN200=



000
FTUS46 KOTX 300520
TAFEAT
TAF
KEAT 300520Z 3006/3106 31012KT P6SM FEW120 FEW200
     FM301100 28006KT P6SM SCT120 SCT200
     FM301800 VRB04KT P6SM BKN200=



000
FTUS46 KOTX 292337
TAFLWS
TAF
KLWS 292337Z 3000/3024 VRB03KT P6SM FEW200
     FM301400 VRB04KT P6SM SCT120 BKN200=



000
FTUS46 KOTX 292337
TAFPUW
TAF
KPUW 292337Z 3000/3024 VRB04KT P6SM SCT200
     FM301400 VRB03KT P6SM SCT120 BKN200=



000
FTUS46 KOTX 292337
TAFMWH
TAF
KMWH 292337Z 3000/3024 VRB05KT P6SM SKC
     FM301300 30004KT P6SM SCT120 BKN200=



000
FTUS46 KOTX 292337
TAFCOE
TAF
KCOE 292337Z 3000/3024 VRB03KT P6SM FEW200
     FM301600 21006KT P6SM SCT120
      AMD LTD TO CLD VIS AND WIND=



000
FTUS46 KOTX 292337
TAFLWS
TAF
KLWS 292337Z 3000/3024 VRB03KT P6SM FEW200
     FM301400 VRB04KT P6SM SCT120 BKN200=



000
FTUS46 KOTX 292337
TAFEAT
TAF
KEAT 292337Z 3000/3024 10005KT P6SM SKC
     FM300300 31011KT P6SM SKC
     FM301000 VRB05KT P6SM SCT200=



000
FTUS46 KOTX 292337
TAFCOE
TAF
KCOE 292337Z 3000/3024 VRB03KT P6SM FEW200
     FM301600 21006KT P6SM SCT120
      AMD LTD TO CLD VIS AND WIND=



000
FTUS46 KOTX 292337
TAFGEG
TAF
KGEG 292337Z 3000/3024 VRB05KT P6SM FEW200
     FM301600 20007KT P6SM SCT120=



000
FTUS46 KOTX 292337
TAFPUW
TAF
KPUW 292337Z 3000/3024 VRB04KT P6SM SCT200
     FM301400 VRB03KT P6SM SCT120 BKN200=



000
FTUS46 KOTX 292337
TAFSFF
TAF
KSFF 292337Z 3000/3024 VRB03KT P6SM FEW200
     FM301600 19004KT P6SM SCT120=



000
FTUS46 KOTX 292337
TAFEAT
TAF
KEAT 292337Z 3000/3024 10005KT P6SM SKC
     FM300300 31011KT P6SM SKC
     FM301000 VRB05KT P6SM SCT200=



000
FTUS46 KOTX 292337
TAFSFF
TAF
KSFF 292337Z 3000/3024 VRB03KT P6SM FEW200
     FM301600 19004KT P6SM SCT120=



000
FTUS46 KOTX 292337
TAFMWH
TAF
KMWH 292337Z 3000/3024 VRB05KT P6SM SKC
     FM301300 30004KT P6SM SCT120 BKN200=



000
FTUS46 KOTX 292337
TAFGEG
TAF
KGEG 292337Z 3000/3024 VRB05KT P6SM FEW200
     FM301600 20007KT P6SM SCT120=



000
FTUS46 KOTX 291735
TAFEAT
TAF

FM300300
 31012KT P6SM FEW150=



000
FTUS46 KOTX 291735
TAFGEG
TAF
KGEG 291735Z 2918/3018 VRB05KT P6SM FEW250=



000
FTUS46 KOTX 291735
TAFEAT
TAF
KEAT 291735Z 2918/3018 30010KT P6SM SKC
     FM301300 12005KT P6SM SCT120 BKN200=



000
FTUS46 KOTX 291735
TAFMWH
TAF
KMWH 291735Z 2918/3018 VRB05KT P6SM SKC
     FM301300 30004KT P6SM SCT120 BKN200=



000
FTUS46 KOTX 291735
TAFLWS
TAF
KLWS 291735Z 2918/3018 VRB03KT P6SM FEW200
     FM301400 VRB04KT P6SM SCT120 BKN200=



000
FTUS46 KOTX 291735
TAFSFF
TAF
KSFF 291735Z 2918/3018 VRB03KT P6SM FEW250=



000
FTUS46 KOTX 291735
TAFCOE
TAF
KCOE 291735Z 2918/3018 07006KT P6SM FEW250
      AMD LTD TO CLD VIS AND WIND=



000
FTUS46 KOTX 291735
TAFPUW
TAF
KPUW 291735Z 2918/3018 27006KT P6SM SCT250
     FM301400 VRB03KT P6SM SCT120 BKN200=



000
FTUS46 KOTX 291735
TAFLWS
TAF
KLWS 291735Z 2918/3018 VRB03KT P6SM FEW200
     FM301400 VRB04KT P6SM SCT120 BKN200=



000
FTUS46 KOTX 291735
TAFSFF
TAF
KSFF 291735Z 2918/3018 VRB03KT P6SM FEW250=



000
FTUS46 KOTX 291735
TAFMWH
TAF
KMWH 291735Z 2918/3018 VRB05KT P6SM SKC
     FM301300 30004KT P6SM SCT120 BKN200=



000
FTUS46 KOTX 291735
TAFCOE
TAF
KCOE 291735Z 2918/3018 07006KT P6SM FEW250
      AMD LTD TO CLD VIS AND WIND=



000
FTUS46 KOTX 291735
TAFGEG
TAF
KGEG 291735Z 2918/3018 VRB05KT P6SM FEW250=



000
FTUS46 KOTX 291735
TAFEAT
TAF

FM300300
 31012KT P6SM FEW150=



000
FTUS46 KOTX 291735
TAFPUW
TAF
KPUW 291735Z 2918/3018 27006KT P6SM SCT250
     FM301400 VRB03KT P6SM SCT120 BKN200=



000
FTUS46 KOTX 291735
TAFEAT
TAF
KEAT 291735Z 2918/3018 30010KT P6SM SKC
     FM301300 12005KT P6SM SCT120 BKN200=



000
FTUS46 KOTX 291120
TAFCOE
TAF
KCOE 291120Z 2912/3012 12005KT P6SM FEW150
      AMD LTD TO CLD VIS AND WIND=



000
FTUS46 KOTX 291120
TAFGEG
TAF
KGEG 291120Z 2912/3012 10005KT P6SM SKC
     FM292200 28008KT P6SM FEW120
     FM300500 VRB05KT P6SM FEW200=



000
FTUS46 KOTX 291120
TAFPUW
TAF
KPUW 291120Z 2912/3012 VRB04KT P6SM FEW200
     FM292100 28009KT P6SM FEW200
     FM300300 VRB03KT P6SM FEW200=



000
FTUS46 KOTX 291120
TAFPUW
TAF
KPUW 291120Z 2912/3012 VRB04KT P6SM FEW200
     FM292100 28009KT P6SM FEW200
     FM300300 VRB03KT P6SM FEW200=



000
FTUS46 KOTX 291120
TAFCOE
TAF
KCOE 291120Z 2912/3012 12005KT P6SM FEW150
      AMD LTD TO CLD VIS AND WIND=



000
FTUS46 KOTX 291120
TAFMWH
TAF
KMWH 291120Z 2912/3012 01005KT P6SM SKC
     FM292000 20007KT P6SM SKC
     FM300200 27005KT P6SM FEW150=



000
FTUS46 KOTX 291120
TAFGEG
TAF
KGEG 291120Z 2912/3012 10005KT P6SM SKC
     FM292200 28008KT P6SM FEW120
     FM300500 VRB05KT P6SM FEW200=



000
FTUS46 KOTX 291120
TAFLWS
TAF
KLWS 291120Z 2912/3012 VRB05KT P6SM SCT200
     FM292200 30009KT P6SM SCT200
     FM300400 22006KT P6SM SCT200=



000
FTUS46 KOTX 291120
TAFEAT
TAF
KEAT 291120Z 2912/3012 30007KT P6SM SKC
     FM292100 12005KT P6SM SKC
     FM300300 31012KT P6SM FEW150=



000
FTUS46 KOTX 291120
TAFSFF
TAF
KSFF 291120Z 2912/3012 VRB04KT P6SM FEW150=



000
FTUS46 KOTX 291120
TAFSFF
TAF
KSFF 291120Z 2912/3012 VRB04KT P6SM FEW150=



000
FTUS46 KOTX 291120
TAFEAT
TAF
KEAT 291120Z 2912/3012 30007KT P6SM SKC
     FM292100 12005KT P6SM SKC
     FM300300 31012KT P6SM FEW150=



000
FTUS46 KOTX 291120
TAFMWH
TAF
KMWH 291120Z 2912/3012 01005KT P6SM SKC
     FM292000 20007KT P6SM SKC
     FM300200 27005KT P6SM FEW150=



000
FTUS46 KOTX 291120
TAFLWS
TAF
KLWS 291120Z 2912/3012 VRB05KT P6SM SCT200
     FM292200 30009KT P6SM SCT200
     FM300400 22006KT P6SM SCT200=



    US Dept of Commerce
    National Oceanic and Atmospheric Administration
    National Weather Service
    1325 East West Highway
    Silver Spring, MD 20910
    Page Author: NWS Internet Services Team
Disclaimer
Information Quality
Credits
Glossary
Privacy Policy
Freedom of Information Act (FOIA)
About Us
Career Opportunities